Terminal Aerodrome Forecast
Issued by NWS Newport/Morehead City, NC

Home | Current Version | Previous Version | Graphics & Text | Print | Product List | Glossary On
Versions: 1 2 3 4 5 6 7 8 9 10 11 12 13 14 15 16
000
FTUS42 KMHX 010815 AAA
TAFEWN
TAF AMD
KEWN 010815Z 0108/0206 00000KT P6SM VCSH SCT015 BKN080
      TEMPO 0108/0112 5SM TSRA BKN015CB
     FM011200 18006KT P6SM VCSH SCT025 BKN050=

USA.gov is the U.S. government's official web portal to all federal, state and local government web resources and services.